Station: Cabramurra  

  Atmospheric Gas Attenuation - ITU Rec 676-11   ----------------- dB/100km -----------------
Date Time Temp RH % AH g/m3 Dew Point Wind Direction Speed kph Gust kph Barometer mB Rainfall Since 9am 24GHz 47GHz 76GHz 122GHz 134GHz 241GHz
02/09 19:40 8 100 8.27 8 33 50 1013.1 0 19.2 27.1 41.4 108.7 101.4 348.2
02/09 19:30 8 100 8.27 8 35 59 1013.1 0 19.2 27.1 41.4 108.7 101.4 348.2
02/09 19:20 8 100 8.27 8 35 46 1013.1 0 19.2 27.1 41.4 108.7 101.4 348.2
02/09 19:10 8 100 8.27 8 37 48 1013.1 0 19.2 27.1 41.4 108.7 101.4 348.2
02/09 19:00 8.1 100 8.32 8.1 35 46 1013.1 0 19.3 27.1 41.6 109.1 102.0 350.3
02/09 18:50 8.1 100 8.32 8.1 35 50 1013.1 0 19.3 27.1 41.6 109.1 102.0 350.3
02/09 18:40 8.1 100 8.32 8.1 33 56 1013.1 0 19.3 27.1 41.6 109.1 102.0 350.3
02/09 18:30 8.1 98 8.16 7.8 37 59 1013.1 0 18.9 26.9 40.9 107.3 99.7 342.4
02/09 18:20 8.1 99 8.24 8 35 48 1013.1 0 19.1 27.0 41.2 108.2 100.9 346.3
02/09 18:10 8.2 99 8.29 8.1 35 48 1013.1 0 19.2 27.0 41.4 108.6 101.4 348.3
02/09 18:00 8.2 98 8.21 7.9 37 56 1013.1 0 19.0 26.9 41.0 107.7 100.3 344.4
02/09 17:50 8.2 98 8.21 7.9 35 50 1013.1 0 19.0 26.9 41.0 107.7 100.3 344.4
02/09 17:40 8.3 98 8.26 8 33 48 1013.1 0 19.1 27.0 41.2 108.2 100.9 346.4
02/09 17:30 8.3 97 8.18 7.9 39 50 1013.1 0 19.0 26.8 40.9 107.2 99.7 342.5
02/09 17:20 8.3 96 8.09 7.7 37 50 1013.1 0 18.8 26.7 40.5 106.2 98.5 338.0
02/09 17:10 8.5 96 8.2 7.9 41 56 1013.1 0 19.0 26.8 40.8 107.2 99.8 342.5
02/09 17:00 8.5 94 8.03 7.6 32 41 1013.1 0 18.6 26.5 40.1 105.3 97.4 334.2
02/09 16:50 8.5 94 8.03 7.6 33 46 1013.1 0 18.6 26.5 40.1 105.3 97.4 334.2
02/09 16:40 8.6 92 7.91 7.4 37 48 1013.1 0 18.4 26.3 39.6 103.8 95.6 328.0
02/09 16:30 8.8 91 7.92 7.4 35 54 1013.1 0 18.4 26.2 39.5 103.6 95.5 327.6
02/09 16:20 8.9 91 7.97 7.5 35 56 1013.1 0 18.5 26.3 39.7 104.1 96.1 329.6
02/09 16:06 9.2 87 7.77 7.2 41 46 1013.1 0 18.0 25.9 38.7 101.4 92.9 318.8
02/09 16:00 9 91 8.03 7.6 39 61 1013.1 0 18.6 26.4 39.9 104.6 96.8 332.1
02/09 15:50 8.7 90 7.79 7.2 41 59 1013.1 0 18.1 26.0 39.0 102.3 93.8 321.8
02/09 15:40 9 89 7.85 7.3 35 50 1013.1 0 18.2 26.1 39.1 102.6 94.3 323.4
02/09 15:30 9.4 85 7.69 7 35 50 1013.1 0 17.8 25.7 38.3 100.3 91.6 314.1
02/09 15:20 9.6 87 7.97 7.5 35 54 1013.1 0 18.4 26.1 39.3 103.1 95.2 326.7
02/09 15:10 9 90 7.94 7.5 32 50 1013.1 0 18.4 26.2 39.5 103.6 95.5 327.8
02/09 15:00 9 88 7.76 7.1 35 54 1013.1 0 18.0 25.9 38.7 101.6 93.0 319.1
02/09 14:50 9.1 86 7.63 6.9 37 56 1013.1 0 17.7 25.7 38.2 100.0 91.2 312.5
02/09 14:40 9.2 82 7.32 6.3 35 54 1013.1 0 17.1 25.1 36.8 96.5 86.9 297.5
02/09 14:30 8.9 89 7.8 7.2 28 43 1013.1 0 18.1 26.0 39.0 102.2 93.7 321.4
02/09 14:20 8.8 91 7.92 7.4 33 52 1013.1 0 18.4 26.2 39.5 103.6 95.5 327.6
02/09 14:07 9.2 89 7.95 7.5 30 41 1013.1 0 18.4 26.2 39.4 103.4 95.4 327.4
02/09 14:00 8.8 89 7.75 7.1 26 39 1013.1 0 18.0 25.9 38.8 101.7 93.2 319.4
02/09 13:50 9.1 86 7.63 6.9 28 33 1013.1 0 17.7 25.7 38.2 100.0 91.2 312.5
02/09 13:40 8.9 86 7.54 6.7 26 37 1013.1 0 17.5 25.6 37.9 99.3 90.2 309.0
02/09 13:30 9.6 87 7.97 7.5 30 44 1013.1 0 18.4 26.1 39.3 103.1 95.2 326.7
02/09 13:20 8.9 86 7.54 6.7 33 52 1013.1 0 17.5 25.6 37.9 99.3 90.2 309.0
02/09 13:06 8.9 85 7.45 6.5 35 41 1013.1 0 17.3 25.4 37.5 98.3 88.9 304.7
02/09 13:00 9.6 90 8.25 8 35 48 1013.1 0 19.0 26.6 40.5 106.3 99.0 340.1
02/09 12:50 9.2 87 7.77 7.2 35 52 1013.1 0 18.0 25.9 38.7 101.4 92.9 318.8
02/09 12:40 10.1 85 8.04 7.7 37 50 1013.1 0 18.6 26.1 39.4 103.2 95.5 327.9
02/09 12:30 9.7 84 7.75 7.1 35 52 1013.1 0 18.0 25.7 38.4 100.6 92.1 315.8
02/09 12:20 8.7 88 7.61 6.8 37 50 1013.1 0 17.7 25.7 38.3 100.3 91.4 313.1
02/09 12:10 8.7 91 7.87 7.3 32 43 1013.1 0 18.3 26.2 39.3 103.2 94.9 325.6
02/09 12:00 8.8 92 8.01 7.6 35 41 1013.1 0 18.6 26.4 39.9 104.6 96.7 332.0
02/09 11:50 8.7 89 7.7 7 30 44 1013.1 0 17.9 25.9 38.6 101.3 92.6 317.5
02/09 11:40 8.4 90 7.64 6.9 32 43 1013.1 0 17.8 25.9 38.5 101.0 92.1 315.8
02/09 11:30 8.6 90 7.74 7.1 30 44 1013.1 0 18.0 26.0 38.9 101.9 93.3 319.8
02/09 11:20 8.5 90 7.69 7 35 50 1013.1 0 17.9 25.9 38.7 101.5 92.7 317.8
02/09 11:10 8.6 88 7.56 6.7 32 48 1013.1 0 17.6 25.7 38.1 99.9 90.8 311.2
02/09 11:00 8.3 91 7.67 6.9 32 48 1013.1 0 17.8 26.0 38.7 101.5 92.7 317.6
02/09 10:50 8.8 90 7.84 7.3 26 44 1013.1 0 18.2 26.1 39.2 102.7 94.4 323.8
02/09 10:40 8.2 91 7.62 6.8 26 39 1013.1 0 17.7 25.9 38.6 101.1 92.1 315.6
02/09 10:30 8.1 93 7.74 7 26 37 1013.1 0 18.0 26.1 39.1 102.5 93.9 321.8
02/09 10:20 7.8 94 7.67 6.9 26 35 1013.1 0 17.9 26.1 39.0 102.2 93.3 319.7
02/09 10:10 7 95 7.36 6.3 24 28 1013.1 0 17.2 25.8 38.0 99.7 89.9 307.9
02/09 10:00 6.7 96 7.3 6.1 26 30 1013.1 0 17.1 25.8 37.9 99.4 89.4 306.2
02/09 09:50 6.5 95 7.13 5.8 28 41 1013.1 0 16.8 25.6 37.3 97.8 87.3 298.7
02/09 09:40 6.4 95 7.08 5.7 26 39 1013.1 0 16.7 25.5 37.2 97.3 86.7 296.7
02/09 09:30 6.4 95 7.08 5.7 24 35 1013.1 0 16.7 25.5 37.2 97.3 86.7 296.7
02/09 09:20 6.3 96 7.11 5.7 24 37 1013.1 0 16.7 25.6 37.3 97.8 87.3 298.5
02/09 09:10 6.4 96 7.16 5.8 26 35 1013.1 0 16.8 25.7 37.5 98.2 87.8 300.5
02/09 09:00 6.4 94 7.01 5.5 32 46 1013.1 0 16.5 25.4 36.9 96.6 85.8 293.3
02/09 08:50 6.3 95 7.04 5.6 26 39 1013.1 0.2 16.6 25.5 37.0 97.0 86.3 295.1
02/09 08:40 6.3 94 6.96 5.4 30 43 1013.1 0.2 16.4 25.3 36.7 96.1 85.2 291.3
02/09 08:30 6.4 93 6.93 5.4 30 46 1013.1 0.2 16.3 25.3 36.5 95.7 84.7 289.4
02/09 08:20 6.5 93 6.98 5.5 26 39 1013.1 0.2 16.4 25.3 36.7 96.1 85.3 291.5
02/09 08:10 6.3 94 6.96 5.4 26 35 1013.1 0.2 16.4 25.3 36.7 96.1 85.2 291.3
02/09 08:00 6.3 94 6.96 5.4 26 39 1013.1 0.2 16.4 25.3 36.7 96.1 85.2 291.3
02/09 07:50 6.3 94 6.96 5.4 26 41 1013.1 0.2 16.4 25.3 36.7 96.1 85.2 291.3
02/09 07:40 6.5 92 6.9 5.3 26 41 1013.1 0.2 16.3 25.2 36.4 95.2 84.2 287.6
02/09 07:30 6.5 92 6.9 5.3 28 46 1013.1 0.2 16.3 25.2 36.4 95.2 84.2 287.6
02/09 07:20 6.5 91 6.83 5.1 26 44 1013.1 0.2 16.1 25.1 36.1 94.4 83.2 284.3
02/09 07:10 6.4 91 6.78 5 26 43 1013.1 0.2 16.0 25.0 35.9 94.0 82.6 282.3
02/09 07:00 6.5 90 6.75 5 30 46 1013.1 0.2 15.9 24.9 35.7 93.5 82.1 280.5
02/09 06:50 6.4 90 6.71 4.9 26 39 1013.1 0.2 15.9 24.9 35.6 93.2 81.7 278.9
02/09 06:40 6.4 91 6.78 5 26 39 1013.1 0.2 16.0 25.0 35.9 94.0 82.6 282.3
02/09 06:30 6.4 90 6.71 4.9 26 39 1013.1 0.2 15.9 24.9 35.6 93.2 81.7 278.9
02/09 06:20 6.4 89 6.64 4.7 28 43 1013.1 0.2 15.7 24.8 35.3 92.5 80.7 275.6
02/09 06:10 6.6 88 6.65 4.8 32 44 1013.1 0.2 15.7 24.7 35.3 92.3 80.7 275.4
02/09 06:00 6.6 89 6.72 4.9 32 39 1013.1 0.2 15.9 24.9 35.6 93.1 81.6 278.7
02/09 05:50 6.7 88 6.69 4.9 33 46 1013.1 0.2 15.8 24.8 35.4 92.6 81.1 276.9
02/09 05:40 6.8 88 6.73 5 39 57 1013.1 0.2 15.9 24.8 35.5 93.0 81.5 278.4
02/09 05:30 6.8 88 6.73 5 41 59 1013.1 0.2 15.9 24.8 35.5 93.0 81.5 278.4
02/09 05:20 6.6 89 6.72 4.9 35 48 1013.1 0.2 15.9 24.9 35.6 93.1 81.6 278.7
02/09 05:10 6.5 89 6.68 4.8 35 50 1013.1 0.2 15.8 24.8 35.5 92.8 81.2 277.1
02/09 05:00 6.8 88 6.73 5 37 50 1013.1 0.2 15.9 24.8 35.5 93.0 81.5 278.4
02/09 04:50 6.7 89 6.77 5 35 46 1013.1 0.2 16.0 24.9 35.7 93.5 82.2 280.7
02/09 04:40 6.5 90 6.75 5 37 50 1013.1 0.2 15.9 24.9 35.7 93.5 82.1 280.5
02/09 04:30 6.5 91 6.83 5.1 35 46 1013.1 0.2 16.1 25.1 36.1 94.4 83.2 284.3
02/09 04:20 6.6 91 6.87 5.2 35 48 1013.1 0.2 16.2 25.1 36.2 94.8 83.6 285.8
02/09 04:10 6.6 91 6.87 5.2 35 46 1013.1 0.2 16.2 25.1 36.2 94.8 83.6 285.8
02/09 04:00 6.3 96 7.11 5.7 32 43 1013.1 0.2 16.7 25.6 37.3 97.8 87.3 298.5
02/09 03:50 6.2 96 7.06 5.6 24 33 1013.1 0.2 16.6 25.5 37.2 97.4 86.7 296.5
02/09 03:40 6.5 94 7.05 5.6 32 43 1013.1 0.2 16.6 25.4 37.0 96.9 86.2 294.8
02/09 03:30 6.5 95 7.13 5.8 32 43 1013.1 0.2 16.8 25.6 37.3 97.8 87.3 298.7
02/09 03:20 6.2 98 7.21 5.9 28 37 1013.1 0.2 16.9 25.8 37.8 99.0 88.8 303.8
02/09 03:10 5.9 100 7.22 5.9 26 33 1013.1 0.2 17.0 25.9 38.0 99.5 89.3 305.4

Last Refresh: 02-Sep-2026 19:14:49

Bureau of Meteorology